Akron, Ohio
Current Conditions -  °F | °C
As of 12:54 AM on Monday 26 Jan 2015 (Local Time) from KAKR Reporting Station
Light Snow Light Snow  
Wind Chill:   Ceiling: 2000
Heat Index: 20°   Visibility: 1.5mi
Dew Point: 16°   Wind: 9mph
Humidity: 85%   Direction: 30°NNE
Pressure: 29.8"   Gusts: NA
Location:  41.08°N, 81.51°W
Report Text: KAKR 260554Z AUTO 03008KT 1 1/2SM -SN BR OVC020 M07/M09 A2980 RMK AO2 SLP103 P0000 60000 T10671089 11039 21067 58010 $
Loading
Personal Weather Stations






























Interactive Weather Map New forecast layout! Learn more

10-Day Weather Forecast

Advertisements
Track Severe Weather on mobile